createdAt,value
2018-08-31T00:00:10.210Z,307.80
2018-08-31T00:02:51.832Z,306.07
2018-08-31T00:05:45.542Z,310.45
2018-08-31T00:10:34.602Z,307.27
2018-08-31T00:13:05.868Z,308.55
2018-08-31T00:15:36.230Z,304.87
2018-08-31T00:18:07.264Z,304.63
2018-08-31T00:20:38.722Z,308.35
2018-08-31T00:23:11.039Z,336.02
2018-08-31T00:26:03.996Z,308.80
2018-08-31T00:28:44.745Z,307.35
2018-08-31T00:31:25.839Z,313.45
2018-08-31T00:38:15.680Z,308.45
2018-08-31T00:41:07.378Z,315.60
2018-08-31T00:43:48.728Z,312.85
2018-08-31T00:46:18.680Z,314.98
2018-08-31T00:48:48.737Z,305.70
2018-08-31T00:51:18.808Z,313.85
2018-08-31T00:53:49.193Z,310.88
2018-08-31T00:56:20.564Z,334.98
2018-08-31T00:58:50.704Z,319.32
2018-08-31T01:01:20.796Z,322.85
2018-08-31T01:03:50.865Z,313.23
2018-08-31T01:06:21.029Z,305.80
2018-08-31T01:08:51.104Z,309.87
2018-08-31T01:11:21.452Z,305.20
2018-08-31T01:13:51.601Z,306.98
2018-08-31T01:16:21.700Z,311.45
2018-08-31T01:18:51.814Z,320.05
2018-08-31T01:21:22.461Z,311.95
2018-08-31T01:23:52.415Z,315.75
2018-08-31T01:26:22.578Z,304.07
2018-08-31T01:28:52.812Z,308.30
2018-08-31T01:31:22.903Z,309.10
2018-08-31T01:33:52.979Z,326.73
2018-08-31T01:36:23.052Z,308.02
2018-08-31T01:38:53.251Z,303.58
2018-08-31T01:41:23.338Z,306.90
2018-08-31T01:43:53.375Z,309.35
2018-08-31T01:46:23.396Z,317.80
2018-08-31T01:48:53.444Z,308.98
2018-08-31T01:51:23.525Z,305.83
2018-08-31T01:53:53.778Z,311.82
2018-08-31T01:56:24.347Z,331.13
2018-08-31T01:58:54.576Z,301.45
2018-08-31T02:01:24.631Z,317.10
2018-08-31T02:03:55.054Z,317.35
2018-08-31T02:06:25.413Z,334.18
2018-08-31T02:09:00.641Z,324.90
2018-08-31T02:11:30.876Z,320.35
2018-08-31T02:14:01.179Z,318.65
2018-08-31T02:16:31.777Z,312.82
2018-08-31T02:19:01.913Z,316.30
2018-08-31T02:21:32.569Z,304.93
2018-08-31T02:24:03.558Z,320.95
2018-08-31T02:26:33.740Z,315.32
2018-08-31T02:29:04.307Z,315.77
2018-08-31T02:31:34.553Z,309.43
2018-08-31T02:34:04.709Z,310.52
2018-08-31T02:36:34.778Z,320.82
2018-08-31T02:39:05.490Z,317.18
2018-08-31T02:41:35.780Z,312.27
2018-08-31T02:44:05.978Z,318.55
2018-08-31T02:46:36.211Z,312.15
2018-08-31T02:49:06.494Z,310.80
2018-08-31T02:51:36.898Z,306.35
2018-08-31T02:54:07.089Z,332.18
2018-08-31T02:56:37.444Z,352.65
2018-08-31T02:59:07.636Z,310.75
2018-08-31T03:01:37.843Z,317.87
2018-08-31T03:04:08.161Z,315.40
2018-08-31T03:06:38.359Z,352.43
2018-08-31T03:09:09.463Z,327.60
2018-08-31T03:11:39.759Z,318.95
2018-08-31T03:14:10.136Z,313.25
2018-08-31T03:16:40.299Z,323.20
2018-08-31T03:19:10.447Z,312.93
2018-08-31T03:21:40.756Z,319.13
2018-08-31T03:24:11.123Z,314.23
2018-08-31T03:26:41.396Z,309.43
2018-08-31T03:29:11.868Z,328.15
2018-08-31T03:31:42.185Z,311.45
2018-08-31T03:34:12.479Z,307.40
2018-08-31T03:36:42.746Z,299.73
2018-08-31T03:39:12.978Z,323.65
2018-08-31T03:41:43.222Z,317.90
2018-08-31T03:44:13.355Z,316.90
2018-08-31T03:46:43.767Z,319.05
2018-08-31T03:49:13.950Z,308.47
2018-08-31T03:51:44.327Z,315.48
2018-08-31T03:54:14.512Z,321.82
2018-08-31T03:56:44.740Z,314.77
2018-08-31T03:59:14.935Z,307.40
2018-08-31T04:01:45.184Z,316.77
2018-08-31T04:04:16.132Z,309.50
2018-08-31T04:06:46.392Z,310.15
2018-08-31T04:09:16.577Z,319.10
2018-08-31T04:11:46.780Z,324.98
2018-08-31T04:14:17.192Z,328.73
2018-08-31T04:16:47.438Z,309.10
2018-08-31T04:19:18.624Z,319.87
2018-08-31T04:21:52.578Z,309.10
2018-08-31T04:24:25.879Z,323.77
2018-08-31T04:27:05.991Z,319.30
2018-08-31T04:29:51.984Z,307.05
2018-08-31T04:32:38.585Z,321.00
2018-08-31T04:35:21.103Z,312.48
2018-08-31T04:37:53.007Z,315.20
2018-08-31T04:40:39.868Z,323.75
2018-08-31T04:43:17.156Z,323.25
2018-08-31T04:45:59.567Z,340.23
2018-08-31T04:48:49.331Z,375.95
2018-08-31T04:51:37.343Z,311.10
2018-08-31T04:54:11.392Z,308.70
2018-08-31T04:56:44.684Z,307.25
2018-08-31T04:59:17.529Z,325.40
2018-08-31T05:01:49.624Z,309.77
2018-08-31T05:04:19.743Z,316.33
2018-08-31T05:06:50.372Z,306.47
2018-08-31T05:09:20.571Z,317.32
2018-08-31T05:11:52.049Z,307.00
2018-08-31T05:14:22.475Z,310.82
2018-08-31T05:16:52.755Z,318.67
2018-08-31T05:19:23.016Z,308.73
2018-08-31T05:22:01.298Z,333.55
2018-08-31T05:24:36.171Z,311.77
2018-08-31T05:27:11.371Z,310.68
2018-08-31T05:29:42.444Z,323.93
2018-08-31T05:32:12.667Z,329.77
2018-08-31T05:34:42.928Z,309.95
2018-08-31T05:37:14.219Z,312.08
2018-08-31T05:39:44.478Z,314.25
2018-08-31T05:42:17.093Z,310.40
2018-08-31T05:44:47.295Z,351.73
2018-08-31T05:47:17.420Z,321.65
2018-08-31T05:49:47.504Z,321.27
2018-08-31T05:52:17.768Z,373.73
2018-08-31T05:54:47.919Z,338.00
2018-08-31T05:57:18.118Z,385.20
2018-08-31T05:59:48.363Z,386.77
2018-08-31T06:02:19.978Z,382.23
2018-08-31T06:04:50.567Z,420.48
2018-08-31T06:09:56.031Z,381.70
2018-08-31T06:12:26.343Z,370.52
2018-08-31T06:14:56.529Z,382.55
2018-08-31T06:17:27.469Z,482.10
2018-08-31T06:19:57.929Z,440.85
2018-08-31T06:22:28.360Z,416.68
2018-08-31T06:24:58.682Z,434.15
2018-08-31T06:27:28.925Z,422.75
2018-08-31T06:29:59.127Z,424.12
2018-08-31T06:32:29.205Z,406.07
2018-08-31T06:34:59.411Z,470.60
2018-08-31T06:37:29.895Z,458.98
2018-08-31T06:40:00.542Z,470.00
2018-08-31T06:42:31.126Z,401.82
2018-08-31T06:45:01.331Z,428.15
2018-08-31T06:47:32.520Z,393.00
2018-08-31T06:50:03.078Z,451.30
2018-08-31T06:52:33.483Z,443.50
2018-08-31T06:55:04.403Z,407.95
2018-08-31T06:57:34.963Z,471.07
2018-08-31T07:00:10.631Z,406.47
2018-08-31T07:02:40.844Z,383.15
2018-08-31T07:05:13.256Z,411.58
2018-08-31T07:07:44.058Z,421.95
2018-08-31T07:10:14.231Z,398.48
2018-08-31T07:12:44.327Z,397.98
2018-08-31T07:15:14.671Z,405.73
2018-08-31T07:17:45.333Z,365.90
2018-08-31T07:20:17.352Z,408.90
2018-08-31T07:22:47.630Z,387.85
2018-08-31T07:25:17.816Z,451.95
2018-08-31T07:27:48.384Z,423.60
2018-08-31T07:30:19.969Z,454.45
2018-08-31T07:32:50.195Z,482.52
2018-08-31T07:35:22.879Z,505.10
2018-08-31T07:37:53.126Z,504.87
2018-08-31T07:40:23.351Z,412.72
2018-08-31T07:42:53.583Z,427.37
2018-08-31T07:45:24.195Z,426.20
2018-08-31T07:47:54.457Z,379.50
2018-08-31T07:50:28.085Z,445.62
2018-08-31T07:52:59.684Z,461.17
2018-08-31T07:55:29.886Z,468.90
2018-08-31T07:58:02.986Z,493.30
2018-08-31T08:00:33.301Z,433.25
2018-08-31T08:03:05.866Z,453.12
2018-08-31T08:05:36.184Z,402.60
2018-08-31T08:08:08.444Z,501.10
2018-08-31T08:10:38.753Z,462.10
2018-08-31T08:13:10.357Z,444.58
2018-08-31T08:15:40.706Z,450.35
2018-08-31T08:18:12.264Z,435.48
2018-08-31T08:20:42.564Z,388.00
2018-08-31T08:23:13.623Z,429.20
2018-08-31T08:25:43.906Z,517.10
2018-08-31T08:28:14.209Z,446.45
2018-08-31T08:30:45.072Z,455.90
2018-08-31T08:33:15.351Z,426.67
2018-08-31T08:35:45.615Z,519.28
2018-08-31T08:38:16.469Z,438.48
2018-08-31T08:40:46.576Z,411.02
2018-08-31T08:43:16.934Z,473.30
2018-08-31T08:45:47.119Z,510.70
2018-08-31T08:48:17.256Z,513.37
2018-08-31T08:50:49.301Z,427.80
2018-08-31T08:53:21.251Z,474.15
2018-08-31T08:55:51.388Z,473.43
2018-08-31T08:58:21.638Z,441.60
2018-08-31T09:00:51.763Z,470.52
2018-08-31T09:03:22.627Z,418.48
2018-08-31T09:05:52.900Z,431.23
2018-08-31T09:08:23.095Z,434.03
2018-08-31T09:10:53.392Z,418.40
2018-08-31T09:13:23.634Z,515.83
2018-08-31T09:15:53.888Z,538.65
2018-08-31T09:18:28.590Z,478.90
2018-08-31T09:20:59.129Z,489.93
2018-08-31T09:23:29.394Z,481.52
2018-08-31T09:26:02.053Z,562.60
2018-08-31T09:28:32.334Z,435.00
2018-08-31T09:31:03.745Z,434.48
2018-08-31T09:33:34.055Z,506.80
2018-08-31T09:36:04.214Z,460.07
2018-08-31T09:38:34.492Z,501.55
2018-08-31T09:41:05.323Z,453.65
2018-08-31T09:43:36.412Z,489.55
2018-08-31T09:46:06.979Z,561.05
2018-08-31T09:48:37.050Z,474.38
2018-08-31T09:51:07.256Z,515.15
2018-08-31T09:53:37.469Z,516.77
2018-08-31T09:56:07.723Z,548.28
2018-08-31T09:58:37.959Z,573.92
2018-08-31T10:04:03.477Z,540.67
2018-08-31T10:06:38.811Z,512.42
2018-08-31T10:09:10.486Z,526.75
2018-08-31T10:11:40.573Z,573.05
2018-08-31T10:14:11.340Z,645.77
2018-08-31T10:16:41.577Z,553.73
2018-08-31T10:19:13.089Z,542.42
2018-08-31T10:21:43.437Z,475.38
2018-08-31T10:24:13.943Z,482.68
2018-08-31T10:26:44.207Z,547.70
2018-08-31T10:29:14.428Z,582.40
2018-08-31T10:31:44.759Z,593.17
2018-08-31T10:34:16.004Z,486.45
2018-08-31T10:36:46.073Z,485.82
2018-08-31T10:39:16.211Z,545.08
2018-08-31T10:41:46.409Z,555.20
2018-08-31T10:44:16.548Z,540.52
2018-08-31T10:46:46.593Z,597.85
2018-08-31T10:49:16.877Z,615.42
2018-08-31T10:51:47.226Z,641.45
2018-08-31T10:54:17.567Z,633.05
2018-08-31T10:56:47.864Z,651.70
2018-08-31T10:59:18.492Z,650.02
2018-08-31T11:01:50.276Z,544.70
2018-08-31T11:04:20.608Z,660.83
2018-08-31T11:06:50.818Z,622.02
2018-08-31T11:09:21.052Z,601.58
2018-08-31T11:11:51.356Z,584.48
2018-08-31T11:14:21.708Z,559.33
2018-08-31T11:16:51.946Z,606.17
2018-08-31T11:19:22.475Z,564.42
2018-08-31T11:21:52.806Z,541.50
2018-08-31T11:24:23.168Z,572.30
2018-08-31T11:26:53.337Z,538.40
2018-08-31T11:29:23.812Z,580.77
2018-08-31T11:31:54.478Z,599.85
2018-08-31T11:34:24.823Z,624.83
2018-08-31T11:36:55.247Z,649.67
2018-08-31T11:39:25.406Z,608.70
2018-08-31T11:41:55.515Z,637.75
2018-08-31T11:44:25.837Z,556.63
2018-08-31T11:46:56.065Z,639.50
2018-08-31T11:49:26.581Z,686.52
2018-08-31T11:51:56.828Z,600.15
2018-08-31T11:54:27.419Z,660.65
2018-08-31T11:56:57.669Z,590.25
2018-08-31T11:59:27.913Z,623.02
2018-08-31T12:01:58.181Z,545.17
2018-08-31T12:04:28.503Z,682.80
2018-08-31T12:06:58.867Z,686.42
2018-08-31T12:09:29.096Z,714.20
2018-08-31T12:11:59.455Z,750.40
2018-08-31T12:14:29.947Z,824.70
2018-08-31T12:17:00.202Z,686.50
2018-08-31T12:19:30.514Z,798.25
2018-08-31T12:22:01.857Z,719.80
2018-08-31T12:24:32.916Z,676.92
2018-08-31T12:27:03.318Z,684.22
2018-08-31T12:29:33.914Z,676.17
2018-08-31T12:32:05.377Z,596.17
2018-08-31T12:34:36.961Z,657.35
2018-08-31T12:37:07.217Z,791.83
2018-08-31T12:39:37.471Z,638.55
2018-08-31T12:42:07.786Z,683.12
2018-08-31T12:44:38.056Z,724.70
2018-08-31T12:47:08.419Z,669.50
2018-08-31T12:49:38.698Z,799.25
2018-08-31T12:52:09.004Z,760.40
2018-08-31T12:54:39.131Z,702.10
2018-08-31T12:57:09.295Z,708.30
2018-08-31T12:59:39.696Z,613.58
2018-08-31T13:02:10.041Z,714.90
2018-08-31T13:04:40.332Z,789.95
2018-08-31T13:07:11.105Z,690.83
2018-08-31T13:09:41.354Z,603.62
2018-08-31T13:12:11.744Z,677.23
2018-08-31T13:14:42.054Z,657.27
2018-08-31T13:17:12.426Z,755.80
2018-08-31T13:19:42.685Z,703.30
2018-08-31T13:22:12.962Z,616.60
2018-08-31T13:24:43.262Z,713.80
2018-08-31T13:27:13.641Z,671.80
2018-08-31T13:29:44.057Z,691.00
2018-08-31T13:32:14.613Z,705.70
2018-08-31T13:34:44.770Z,696.25
2018-08-31T13:37:15.193Z,581.23
2018-08-31T13:39:45.364Z,632.15
2018-08-31T13:42:15.562Z,593.55
2018-08-31T13:44:46.000Z,643.42
2018-08-31T13:47:16.410Z,602.52
2018-08-31T13:49:46.740Z,628.88
2018-08-31T13:52:17.037Z,578.52
2018-08-31T13:54:47.211Z,666.52
2018-08-31T13:57:17.540Z,695.25
2018-08-31T13:59:47.827Z,698.67
2018-08-31T14:02:18.130Z,656.05
2018-08-31T14:04:48.308Z,634.75
2018-08-31T14:07:18.451Z,655.37
2018-08-31T14:09:48.855Z,743.33
2018-08-31T14:12:19.481Z,614.13
2018-08-31T14:14:49.644Z,628.23
2018-08-31T14:17:19.778Z,621.95
2018-08-31T14:19:50.569Z,617.95
2018-08-31T14:22:21.008Z,581.17
2018-08-31T14:24:51.480Z,616.25
2018-08-31T14:27:21.776Z,632.42
2018-08-31T14:29:52.105Z,513.92
2018-08-31T14:32:22.472Z,561.83
2018-08-31T14:34:52.904Z,602.88
2018-08-31T14:37:23.398Z,660.23
2018-08-31T14:39:53.958Z,617.72
2018-08-31T14:42:24.591Z,601.85
2018-08-31T14:44:55.089Z,581.78
2018-08-31T14:47:25.580Z,570.92
2018-08-31T14:49:56.774Z,566.80
2018-08-31T14:52:26.850Z,605.83
2018-08-31T14:54:57.259Z,678.23
2018-08-31T14:57:27.526Z,581.35
2018-08-31T15:00:03.403Z,672.40
2018-08-31T15:02:34.216Z,587.10
2018-08-31T15:05:04.525Z,529.27
2018-08-31T15:07:34.725Z,704.42
2018-08-31T15:10:05.127Z,531.83
2018-08-31T15:12:35.512Z,595.40
2018-08-31T15:15:07.006Z,571.30
2018-08-31T15:17:37.106Z,634.77
2018-08-31T15:20:07.737Z,630.75
2018-08-31T15:22:38.100Z,543.23
2018-08-31T15:25:08.530Z,630.80
2018-08-31T15:27:38.983Z,583.38
2018-08-31T15:30:09.724Z,679.98
2018-08-31T15:32:40.240Z,563.35
2018-08-31T15:35:10.285Z,639.70
2018-08-31T15:37:40.730Z,627.97
2018-08-31T15:40:10.752Z,587.38
2018-08-31T15:42:41.424Z,689.35
2018-08-31T15:45:12.404Z,603.08
2018-08-31T15:47:43.563Z,614.25
2018-08-31T15:50:13.847Z,678.62
2018-08-31T15:52:44.042Z,650.22
2018-08-31T15:55:14.220Z,618.00
2018-08-31T15:57:44.348Z,591.80
2018-08-31T16:00:15.457Z,619.80
2018-08-31T16:02:45.696Z,623.58
2018-08-31T16:05:19.656Z,699.67
2018-08-31T16:07:50.035Z,523.05
2018-08-31T16:10:20.276Z,557.50
2018-08-31T16:12:50.570Z,546.63
2018-08-31T16:15:21.093Z,648.05
2018-08-31T16:17:51.435Z,564.90
2018-08-31T16:20:22.791Z,623.35
2018-08-31T16:22:53.351Z,641.73
2018-08-31T16:25:33.999Z,550.62
2018-08-31T16:28:07.907Z,541.33
2018-08-31T16:30:38.678Z,615.50
2018-08-31T16:33:10.672Z,621.95
2018-08-31T16:35:41.028Z,523.97
2018-08-31T16:38:12.258Z,597.17
2018-08-31T16:40:42.513Z,685.37
2018-08-31T16:43:23.062Z,619.62
2018-08-31T16:45:54.247Z,608.75
2018-08-31T16:48:25.638Z,630.33
2018-08-31T16:50:56.594Z,654.45
2018-08-31T16:53:26.977Z,617.75
2018-08-31T16:55:57.353Z,613.12
2018-08-31T16:58:28.212Z,557.20
2018-08-31T17:00:58.748Z,591.98
2018-08-31T17:03:30.523Z,605.52
2018-08-31T17:06:00.890Z,642.30
2018-08-31T17:08:31.720Z,512.88
2018-08-31T17:11:02.352Z,554.08
2018-08-31T17:13:32.869Z,652.90
2018-08-31T17:16:03.551Z,613.03
2018-08-31T17:18:34.118Z,566.20
2018-08-31T17:21:04.931Z,566.88
2018-08-31T17:23:35.604Z,594.33
2018-08-31T17:26:05.810Z,613.98
2018-08-31T17:28:41.229Z,633.58
2018-08-31T17:31:16.492Z,591.00
2018-08-31T17:33:52.144Z,586.08
2018-08-31T17:36:27.372Z,568.87
2018-08-31T17:38:57.829Z,652.90
2018-08-31T17:41:28.473Z,550.72
2018-08-31T17:43:58.772Z,497.50
2018-08-31T17:46:30.225Z,529.12
2018-08-31T17:49:00.615Z,522.23
2018-08-31T17:51:31.085Z,516.42
2018-08-31T17:54:01.473Z,572.37
2018-08-31T17:56:31.952Z,629.92
2018-08-31T17:59:02.295Z,588.10
2018-08-31T18:01:33.291Z,524.08
2018-08-31T18:04:04.352Z,513.67
2018-08-31T18:06:34.822Z,527.08
2018-08-31T18:09:08.043Z,536.20
2018-08-31T18:11:41.393Z,533.92
2018-08-31T18:14:12.699Z,559.98
2018-08-31T18:16:42.947Z,623.33
2018-08-31T18:19:13.008Z,527.13
2018-08-31T18:21:43.213Z,546.17
2018-08-31T18:24:13.779Z,612.00
2018-08-31T18:26:44.499Z,505.22
2018-08-31T18:29:14.992Z,579.48
2018-08-31T18:31:45.465Z,555.30
2018-08-31T18:34:15.606Z,521.10
2018-08-31T18:36:46.103Z,553.75
2018-08-31T18:39:16.278Z,544.20
2018-08-31T18:41:46.524Z,547.10
2018-08-31T18:44:16.833Z,556.65
2018-08-31T18:46:47.162Z,505.65
2018-08-31T18:49:18.416Z,563.08
2018-08-31T18:51:53.648Z,541.10
2018-08-31T18:54:24.532Z,500.07
2018-08-31T18:56:54.880Z,443.45
2018-08-31T18:59:25.353Z,565.88
2018-08-31T19:01:56.435Z,548.13
2018-08-31T19:04:28.075Z,564.87
2018-08-31T19:06:58.310Z,501.18
2018-08-31T19:09:30.351Z,575.98
2018-08-31T19:12:01.582Z,559.98
2018-08-31T19:14:34.298Z,487.92
2018-08-31T19:17:04.593Z,593.87
2018-08-31T19:19:35.555Z,547.37
2018-08-31T19:22:07.534Z,551.58
2018-08-31T19:24:37.658Z,545.92
2018-08-31T19:27:09.151Z,514.17
2018-08-31T19:29:39.546Z,624.67
2018-08-31T19:32:09.783Z,592.30
2018-08-31T19:34:41.671Z,599.27
2018-08-31T19:37:11.886Z,589.37
2018-08-31T19:39:42.193Z,604.42
2018-08-31T19:42:12.562Z,518.23
2018-08-31T19:44:42.820Z,587.85
2018-08-31T19:47:13.096Z,488.00
2018-08-31T19:49:43.422Z,492.35
2018-08-31T19:52:14.865Z,547.02
2018-08-31T19:54:45.237Z,605.67
2018-08-31T19:57:15.393Z,631.45
2018-08-31T19:59:45.745Z,552.28
2018-08-31T20:02:17.610Z,520.77
2018-08-31T20:04:48.398Z,456.30
2018-08-31T20:07:18.806Z,607.80
2018-08-31T20:09:51.256Z,563.52
2018-08-31T20:12:21.551Z,503.45
2018-08-31T20:14:52.133Z,533.30
2018-08-31T20:17:22.709Z,481.23
2018-08-31T20:19:53.973Z,552.58
2018-08-31T20:22:24.561Z,539.83
2018-08-31T20:24:55.265Z,476.87
2018-08-31T20:27:26.305Z,548.65
2018-08-31T20:29:57.929Z,455.85
2018-08-31T20:32:28.420Z,565.55
2018-08-31T20:35:00.727Z,515.62
2018-08-31T20:37:31.217Z,473.65
2018-08-31T20:40:02.722Z,446.75
2018-08-31T20:42:33.207Z,475.53
2018-08-31T20:45:04.389Z,500.42
2018-08-31T20:47:35.145Z,538.90
2018-08-31T20:50:05.704Z,481.97
2018-08-31T20:52:36.092Z,481.82
2018-08-31T20:55:07.590Z,542.03
2018-08-31T20:57:38.697Z,493.90
2018-08-31T21:00:10.350Z,550.15
2018-08-31T21:05:37.980Z,503.82
2018-08-31T21:08:08.954Z,519.13
2018-08-31T21:10:39.137Z,498.62
2018-08-31T21:13:10.323Z,485.63
2018-08-31T21:15:40.475Z,477.52
2018-08-31T21:18:10.969Z,509.77
2018-08-31T21:20:41.620Z,519.80
2018-08-31T21:23:13.194Z,468.37
2018-08-31T21:25:44.821Z,543.58
2018-08-31T21:28:15.627Z,491.23
2018-08-31T21:30:45.875Z,465.70
2018-08-31T21:33:16.211Z,495.05
2018-08-31T21:35:46.928Z,597.08
2018-08-31T21:38:17.386Z,467.33
2018-08-31T21:40:47.585Z,526.20
2018-08-31T21:43:17.798Z,499.70
2018-08-31T21:45:48.323Z,462.05
2018-08-31T21:48:18.689Z,448.97
2018-08-31T21:50:49.128Z,508.92
2018-08-31T21:53:19.372Z,573.20
2018-08-31T21:55:49.665Z,470.82
2018-08-31T21:58:20.139Z,454.05
2018-08-31T22:00:50.417Z,484.87
2018-08-31T22:03:20.731Z,497.70
2018-08-31T22:05:52.237Z,559.35
2018-08-31T22:08:22.518Z,495.95
2018-08-31T22:10:52.781Z,450.65
2018-08-31T22:13:23.290Z,434.03
2018-08-31T22:15:53.672Z,485.70
2018-08-31T22:18:24.177Z,470.95
2018-08-31T22:20:54.420Z,474.98
2018-08-31T22:23:24.813Z,418.67
2018-08-31T22:25:56.004Z,476.43
2018-08-31T22:28:26.361Z,505.05
2018-08-31T22:30:57.464Z,518.52
2018-08-31T22:33:28.810Z,463.70
2018-08-31T22:35:59.016Z,473.82
2018-08-31T22:38:30.244Z,466.25
2018-08-31T22:41:01.754Z,490.68
2018-08-31T22:43:37.283Z,470.35
2018-08-31T22:46:07.397Z,544.77
2018-08-31T22:48:38.703Z,413.10
2018-08-31T22:54:06.020Z,450.90
2018-08-31T22:56:38.455Z,458.83
2018-08-31T22:59:08.889Z,523.92
2018-08-31T23:01:39.193Z,449.00
2018-08-31T23:04:09.530Z,495.08
2018-08-31T23:06:40.862Z,582.77
2018-08-31T23:09:11.067Z,444.17
2018-08-31T23:11:41.943Z,469.45
2018-08-31T23:14:12.144Z,416.70
2018-08-31T23:16:42.541Z,507.30
2018-08-31T23:19:13.078Z,427.95
2018-08-31T23:21:43.329Z,484.35
2018-08-31T23:24:14.227Z,475.92
2018-08-31T23:26:45.580Z,485.35
2018-08-31T23:29:16.151Z,499.98
2018-08-31T23:31:46.269Z,483.18
2018-08-31T23:34:16.574Z,440.50
2018-08-31T23:36:47.042Z,571.12
2018-08-31T23:39:17.279Z,475.87
2018-08-31T23:41:47.544Z,439.02
2018-08-31T23:44:17.744Z,465.28
2018-08-31T23:46:47.912Z,535.70
2018-08-31T23:49:18.384Z,420.80
2018-08-31T23:51:48.508Z,441.42
2018-08-31T23:54:19.009Z,470.05
2018-08-31T23:56:49.105Z,446.10
2018-08-31T23:59:19.746Z,429.98
